sensor_id;sensor_type;location;lat;lon;timestamp;temperature;humidity
51619;DHT22;38518;53.164;5.430;2024-02-23T00:00:10;6.00;99.90
51619;DHT22;38518;53.164;5.430;2024-02-23T00:02:38;5.50;99.90
51619;DHT22;38518;53.164;5.430;2024-02-23T00:05:04;5.40;97.00
51619;DHT22;38518;53.164;5.430;2024-02-23T00:07:30;5.40;98.60
51619;DHT22;38518;53.164;5.430;2024-02-23T00:09:55;5.30;98.90
51619;DHT22;38518;53.164;5.430;2024-02-23T00:12:21;5.90;99.90
51619;DHT22;38518;53.164;5.430;2024-02-23T00:14:47;5.20;99.90
51619;DHT22;38518;53.164;5.430;2024-02-23T00:17:13;5.20;99.90
51619;DHT22;38518;53.164;5.430;2024-02-23T00:19:39;6.30;99.90
51619;DHT22;38518;53.164;5.430;2024-02-23T00:22:04;5.70;99.90
51619;DHT22;38518;53.164;5.430;2024-02-23T00:24:30;5.10;99.90
51619;DHT22;38518;53.164;5.430;2024-02-23T00:26:56;5.20;99.90
51619;DHT22;38518;53.164;5.430;2024-02-23T00:29:22;6.10;99.90
51619;DHT22;38518;53.164;5.430;2024-02-23T00:31:48;5.30;99.90
51619;DHT22;38518;53.164;5.430;2024-02-23T00:34:15;5.40;99.90
51619;DHT22;38518;53.164;5.430;2024-02-23T00:36:42;5.90;99.90
51619;DHT22;38518;53.164;5.430;2024-02-23T00:39:10;5.50;99.90
51619;DHT22;38518;53.164;5.430;2024-02-23T00:41:36;5.50;99.90
51619;DHT22;38518;53.164;5.430;2024-02-23T00:44:05;5.60;99.90
51619;DHT22;38518;53.164;5.430;2024-02-23T00:46:31;6.00;99.90
51619;DHT22;38518;53.164;5.430;2024-02-23T00:48:57;5.70;99.90
51619;DHT22;38518;53.164;5.430;2024-02-23T00:51:23;5.80;99.90
51619;DHT22;38518;53.164;5.430;2024-02-23T00:53:49;5.80;99.90
51619;DHT22;38518;53.164;5.430;2024-02-23T00:56:14;6.00;99.90
51619;DHT22;38518;53.164;5.430;2024-02-23T00:58:40;5.80;99.30
51619;DHT22;38518;53.164;5.430;2024-02-23T01:01:06;4.50;97.80
51619;DHT22;38518;53.164;5.430;2024-02-23T01:03:31;5.80;98.00
51619;DHT22;38518;53.164;5.430;2024-02-23T01:05:58;6.10;94.30
51619;DHT22;38518;53.164;5.430;2024-02-23T01:08:23;5.80;93.80
51619;DHT22;38518;53.164;5.430;2024-02-23T01:10:49;5.80;93.80
51619;DHT22;38518;53.164;5.430;2024-02-23T01:13:15;6.60;80.90
51619;DHT22;38518;53.164;5.430;2024-02-23T01:15:41;5.80;80.10
51619;DHT22;38518;53.164;5.430;2024-02-23T01:18:07;5.80;74.80
51619;DHT22;38518;53.164;5.430;2024-02-23T01:20:33;5.80;72.20
51619;DHT22;38518;53.164;5.430;2024-02-23T01:22:59;5.90;72.20
51619;DHT22;38518;53.164;5.430;2024-02-23T01:25:25;5.90;65.00
51619;DHT22;38518;53.164;5.430;2024-02-23T01:27:51;5.90;61.00
51619;DHT22;38518;53.164;5.430;2024-02-23T01:30:17;6.80;66.90
51619;DHT22;38518;53.164;5.430;2024-02-23T01:32:45;7.50;59.50
51619;DHT22;38518;53.164;5.430;2024-02-23T01:35:11;5.80;56.40
51619;DHT22;38518;53.164;5.430;2024-02-23T01:37:36;5.80;54.30
51619;DHT22;38518;53.164;5.430;2024-02-23T01:40:02;5.80;56.60
51619;DHT22;38518;53.164;5.430;2024-02-23T01:42:29;5.80;61.20
51619;DHT22;38518;53.164;5.430;2024-02-23T01:44:55;5.80;49.50
51619;DHT22;38518;53.164;5.430;2024-02-23T01:47:27;5.80;46.30
51619;DHT22;38518;53.164;5.430;2024-02-23T01:49:54;5.90;41.90
51619;DHT22;38518;53.164;5.430;2024-02-23T01:52:20;5.90;41.50
51619;DHT22;38518;53.164;5.430;2024-02-23T01:54:46;5.80;39.50
51619;DHT22;38518;53.164;5.430;2024-02-23T01:57:12;5.80;43.00
51619;DHT22;38518;53.164;5.430;2024-02-23T01:59:38;6.00;39.20
51619;DHT22;38518;53.164;5.430;2024-02-23T02:02:05;5.70;37.30
51619;DHT22;38518;53.164;5.430;2024-02-23T02:04:31;6.60;41.90
51619;DHT22;38518;53.164;5.430;2024-02-23T02:06:57;5.70;37.80
51619;DHT22;38518;53.164;5.430;2024-02-23T02:09:25;5.80;40.20
51619;DHT22;38518;53.164;5.430;2024-02-23T02:11:51;5.80;39.40
51619;DHT22;38518;53.164;5.430;2024-02-23T02:14:17;5.70;31.70
51619;DHT22;38518;53.164;5.430;2024-02-23T02:16:43;6.00;36.30
51619;DHT22;38518;53.164;5.430;2024-02-23T02:19:10;5.70;34.80
51619;DHT22;38518;53.164;5.430;2024-02-23T02:21:37;6.10;30.00
51619;DHT22;38518;53.164;5.430;2024-02-23T02:24:03;5.70;24.60
51619;DHT22;38518;53.164;5.430;2024-02-23T02:26:29;5.60;30.50
51619;DHT22;38518;53.164;5.430;2024-02-23T02:28:55;5.60;31.80
51619;DHT22;38518;53.164;5.430;2024-02-23T02:31:21;6.30;36.10
51619;DHT22;38518;53.164;5.430;2024-02-23T02:33:47;5.60;36.00
51619;DHT22;38518;53.164;5.430;2024-02-23T02:36:12;5.60;34.00
51619;DHT22;38518;53.164;5.430;2024-02-23T02:38:38;5.60;26.00
51619;DHT22;38518;53.164;5.430;2024-02-23T02:41:04;6.30;39.10
51619;DHT22;38518;53.164;5.430;2024-02-23T02:43:31;6.00;29.80
51619;DHT22;38518;53.164;5.430;2024-02-23T02:45:57;6.30;28.80
51619;DHT22;38518;53.164;5.430;2024-02-23T02:48:23;5.50;20.40
51619;DHT22;38518;53.164;5.430;2024-02-23T02:50:49;5.50;27.40
51619;DHT22;38518;53.164;5.430;2024-02-23T02:53:16;6.00;28.30
51619;DHT22;38518;53.164;5.430;2024-02-23T02:55:42;5.60;27.60
51619;DHT22;38518;53.164;5.430;2024-02-23T02:58:09;5.60;28.10
51619;DHT22;38518;53.164;5.430;2024-02-23T03:00:34;5.70;30.30
51619;DHT22;38518;53.164;5.430;2024-02-23T03:03:00;5.10;28.50
51619;DHT22;38518;53.164;5.430;2024-02-23T03:05:26;5.00;41.20
51619;DHT22;38518;53.164;5.430;2024-02-23T03:07:52;5.00;54.80
51619;DHT22;38518;53.164;5.430;2024-02-23T03:10:18;5.00;58.30
51619;DHT22;38518;53.164;5.430;2024-02-23T03:12:43;5.00;58.10
51619;DHT22;38518;53.164;5.430;2024-02-23T03:15:09;5.10;62.20
51619;DHT22;38518;53.164;5.430;2024-02-23T03:17:38;5.80;67.50
51619;DHT22;38518;53.164;5.430;2024-02-23T03:20:04;5.10;65.60
51619;DHT22;38518;53.164;5.430;2024-02-23T03:22:37;5.00;53.80
51619;DHT22;38518;53.164;5.430;2024-02-23T03:25:04;5.00;58.10
51619;DHT22;38518;53.164;5.430;2024-02-23T03:27:35;5.00;64.60
51619;DHT22;38518;53.164;5.430;2024-02-23T03:30:05;5.10;73.50
51619;DHT22;38518;53.164;5.430;2024-02-23T03:32:33;5.20;71.00
51619;DHT22;38518;53.164;5.430;2024-02-23T03:35:06;5.30;76.30
51619;DHT22;38518;53.164;5.430;2024-02-23T03:37:32;5.30;76.20
51619;DHT22;38518;53.164;5.430;2024-02-23T03:39:58;5.90;66.90
51619;DHT22;38518;53.164;5.430;2024-02-23T03:42:25;5.40;63.10
51619;DHT22;38518;53.164;5.430;2024-02-23T03:44:51;6.50;50.50
51619;DHT22;38518;53.164;5.430;2024-02-23T03:47:17;5.30;48.60
51619;DHT22;38518;53.164;5.430;2024-02-23T03:49:42;5.40;37.30
51619;DHT22;38518;53.164;5.430;2024-02-23T03:52:08;5.90;31.80
51619;DHT22;38518;53.164;5.430;2024-02-23T03:54:34;5.40;37.50
51619;DHT22;38518;53.164;5.430;2024-02-23T03:56:59;5.40;43.20
51619;DHT22;38518;53.164;5.430;2024-02-23T03:59:25;5.80;41.90
51619;DHT22;38518;53.164;5.430;2024-02-23T04:01:51;5.70;48.60
51619;DHT22;38518;53.164;5.430;2024-02-23T04:04:17;5.40;45.60
51619;DHT22;38518;53.164;5.430;2024-02-23T04:06:43;5.80;37.40
51619;DHT22;38518;53.164;5.430;2024-02-23T04:09:08;5.40;41.60
51619;DHT22;38518;53.164;5.430;2024-02-23T04:11:34;5.40;32.70
51619;DHT22;38518;53.164;5.430;2024-02-23T04:14:00;5.40;39.40
51619;DHT22;38518;53.164;5.430;2024-02-23T04:16:26;5.40;31.30
51619;DHT22;38518;53.164;5.430;2024-02-23T04:18:55;5.40;32.80
51619;DHT22;38518;53.164;5.430;2024-02-23T04:21:21;5.40;30.00
51619;DHT22;38518;53.164;5.430;2024-02-23T04:23:47;5.40;37.70
51619;DHT22;38518;53.164;5.430;2024-02-23T04:26:13;6.20;31.60
51619;DHT22;38518;53.164;5.430;2024-02-23T04:28:40;5.50;33.10
51619;DHT22;38518;53.164;5.430;2024-02-23T04:31:07;5.50;37.40
51619;DHT22;38518;53.164;5.430;2024-02-23T04:33:34;5.90;34.20
51619;DHT22;38518;53.164;5.430;2024-02-23T04:36:01;5.50;35.90
51619;DHT22;38518;53.164;5.430;2024-02-23T04:38:26;5.60;34.50
51619;DHT22;38518;53.164;5.430;2024-02-23T04:40:52;5.60;39.70
51619;DHT22;38518;53.164;5.430;2024-02-23T04:43:18;5.60;33.50
51619;DHT22;38518;53.164;5.430;2024-02-23T04:45:43;5.60;29.20
51619;DHT22;38518;53.164;5.430;2024-02-23T04:48:09;5.60;33.90
51619;DHT22;38518;53.164;5.430;2024-02-23T04:50:35;6.10;39.70
51619;DHT22;38518;53.164;5.430;2024-02-23T04:53:01;5.50;31.00
51619;DHT22;38518;53.164;5.430;2024-02-23T04:55:27;5.60;30.00
51619;DHT22;38518;53.164;5.430;2024-02-23T04:57:52;5.60;33.20
51619;DHT22;38518;53.164;5.430;2024-02-23T05:00:18;5.60;28.60
51619;DHT22;38518;53.164;5.430;2024-02-23T05:02:45;5.50;31.60
51619;DHT22;38518;53.164;5.430;2024-02-23T05:05:12;5.50;39.80
51619;DHT22;38518;53.164;5.430;2024-02-23T05:07:37;5.40;40.00
51619;DHT22;38518;53.164;5.430;2024-02-23T05:10:04;5.50;34.30
51619;DHT22;38518;53.164;5.430;2024-02-23T05:12:30;5.50;41.30
51619;DHT22;38518;53.164;5.430;2024-02-23T05:14:55;5.50;45.70
51619;DHT22;38518;53.164;5.430;2024-02-23T05:17:21;5.50;44.90
51619;DHT22;38518;53.164;5.430;2024-02-23T05:19:47;5.80;41.70
51619;DHT22;38518;53.164;5.430;2024-02-23T05:22:12;5.50;44.90
51619;DHT22;38518;53.164;5.430;2024-02-23T05:24:38;6.20;44.70
51619;DHT22;38518;53.164;5.430;2024-02-23T05:27:04;5.50;45.80
51619;DHT22;38518;53.164;5.430;2024-02-23T05:29:30;5.40;39.70
51619;DHT22;38518;53.164;5.430;2024-02-23T05:31:56;5.40;36.80
51619;DHT22;38518;53.164;5.430;2024-02-23T05:34:21;5.40;37.60
51619;DHT22;38518;53.164;5.430;2024-02-23T05:36:47;5.40;44.80
51619;DHT22;38518;53.164;5.430;2024-02-23T05:39:13;5.40;37.10
51619;DHT22;38518;53.164;5.430;2024-02-23T05:41:41;6.00;44.00
51619;DHT22;38518;53.164;5.430;2024-02-23T05:44:07;5.40;36.80
51619;DHT22;38518;53.164;5.430;2024-02-23T05:46:34;5.40;35.10
51619;DHT22;38518;53.164;5.430;2024-02-23T05:49:00;5.40;44.70
51619;DHT22;38518;53.164;5.430;2024-02-23T05:51:27;6.10;36.80
51619;DHT22;38518;53.164;5.430;2024-02-23T05:53:54;5.30;40.40
51619;DHT22;38518;53.164;5.430;2024-02-23T05:56:20;5.30;40.10
51619;DHT22;38518;53.164;5.430;2024-02-23T05:58:46;5.30;44.80
51619;DHT22;38518;53.164;5.430;2024-02-23T06:01:11;5.30;44.20
51619;DHT22;38518;53.164;5.430;2024-02-23T06:03:37;5.30;35.70
51619;DHT22;38518;53.164;5.430;2024-02-23T06:06:07;5.30;32.20
51619;DHT22;38518;53.164;5.430;2024-02-23T06:08:33;5.20;30.10
51619;DHT22;38518;53.164;5.430;2024-02-23T06:10:59;5.50;36.10
51619;DHT22;38518;53.164;5.430;2024-02-23T06:13:25;5.10;36.20
51619;DHT22;38518;53.164;5.430;2024-02-23T06:15:51;5.10;33.90
51619;DHT22;38518;53.164;5.430;2024-02-23T06:18:17;5.60;37.70
51619;DHT22;38518;53.164;5.430;2024-02-23T06:20:43;5.50;38.00
51619;DHT22;38518;53.164;5.430;2024-02-23T06:23:08;5.20;39.20
51619;DHT22;38518;53.164;5.430;2024-02-23T06:25:34;6.10;40.10
51619;DHT22;38518;53.164;5.430;2024-02-23T06:28:00;5.30;45.80
51619;DHT22;38518;53.164;5.430;2024-02-23T06:30:25;5.30;44.70
51619;DHT22;38518;53.164;5.430;2024-02-23T06:32:51;5.40;46.50
51619;DHT22;38518;53.164;5.430;2024-02-23T06:35:18;5.40;40.90
51619;DHT22;38518;53.164;5.430;2024-02-23T06:37:44;4.20;37.40
51619;DHT22;38518;53.164;5.430;2024-02-23T06:40:10;6.30;35.60
51619;DHT22;38518;53.164;5.430;2024-02-23T06:42:35;5.50;39.10
51619;DHT22;38518;53.164;5.430;2024-02-23T06:45:01;5.40;35.80
51619;DHT22;38518;53.164;5.430;2024-02-23T06:47:27;5.30;42.50
51619;DHT22;38518;53.164;5.430;2024-02-23T06:49:53;5.20;38.80
51619;DHT22;38518;53.164;5.430;2024-02-23T06:52:18;5.20;39.40
51619;DHT22;38518;53.164;5.430;2024-02-23T06:54:44;5.20;46.40
51619;DHT22;38518;53.164;5.430;2024-02-23T06:57:10;5.50;51.10
51619;DHT22;38518;53.164;5.430;2024-02-23T06:59:36;5.90;61.60
51619;DHT22;38518;53.164;5.430;2024-02-23T07:02:02;5.30;59.90
51619;DHT22;38518;53.164;5.430;2024-02-23T07:04:29;5.50;66.40
51619;DHT22;38518;53.164;5.430;2024-02-23T07:06:55;5.20;64.80
51619;DHT22;38518;53.164;5.430;2024-02-23T07:09:21;5.30;67.90
51619;DHT22;38518;53.164;5.430;2024-02-23T07:11:47;5.40;70.10
51619;DHT22;38518;53.164;5.430;2024-02-23T07:14:12;5.30;72.80
51619;DHT22;38518;53.164;5.430;2024-02-23T07:16:40;5.40;72.00
51619;DHT22;38518;53.164;5.430;2024-02-23T07:19:07;5.50;67.70
51619;DHT22;38518;53.164;5.430;2024-02-23T07:21:33;5.50;58.80
51619;DHT22;38518;53.164;5.430;2024-02-23T07:23:59;5.60;59.70
51619;DHT22;38518;53.164;5.430;2024-02-23T07:26:25;5.80;48.60
51619;DHT22;38518;53.164;5.430;2024-02-23T07:28:53;5.60;49.10
51619;DHT22;38518;53.164;5.430;2024-02-23T07:31:19;5.70;44.90
51619;DHT22;38518;53.164;5.430;2024-02-23T07:33:45;6.80;49.30
51619;DHT22;38518;53.164;5.430;2024-02-23T07:36:15;5.80;52.40
51619;DHT22;38518;53.164;5.430;2024-02-23T07:38:41;6.50;36.70
51619;DHT22;38518;53.164;5.430;2024-02-23T07:41:06;5.70;30.50
51619;DHT22;38518;53.164;5.430;2024-02-23T07:43:32;5.80;31.90
51619;DHT22;38518;53.164;5.430;2024-02-23T07:45:58;5.90;23.90
51619;DHT22;38518;53.164;5.430;2024-02-23T07:48:24;5.90;24.40
51619;DHT22;38518;53.164;5.430;2024-02-23T07:50:49;5.90;19.10
51619;DHT22;38518;53.164;5.430;2024-02-23T07:53:15;5.80;17.60
51619;DHT22;38518;53.164;5.430;2024-02-23T07:55:41;5.80;19.40
51619;DHT22;38518;53.164;5.430;2024-02-23T07:58:06;5.70;17.10
51619;DHT22;38518;53.164;5.430;2024-02-23T08:00:32;6.10;19.30
51619;DHT22;38518;53.164;5.430;2024-02-23T08:03:00;5.90;21.50
51619;DHT22;38518;53.164;5.430;2024-02-23T08:05:25;6.20;28.50
51619;DHT22;38518;53.164;5.430;2024-02-23T08:07:51;6.30;15.70
51619;DHT22;38518;53.164;5.430;2024-02-23T08:10:17;6.40;13.40
51619;DHT22;38518;53.164;5.430;2024-02-23T08:12:42;6.30;16.20
51619;DHT22;38518;53.164;5.430;2024-02-23T08:15:08;6.30;14.40
51619;DHT22;38518;53.164;5.430;2024-02-23T08:17:34;6.20;8.60
51619;DHT22;38518;53.164;5.430;2024-02-23T08:20:00;6.20;11.00
51619;DHT22;38518;53.164;5.430;2024-02-23T08:22:26;6.10;12.60
51619;DHT22;38518;53.164;5.430;2024-02-23T08:24:52;6.10;15.50
51619;DHT22;38518;53.164;5.430;2024-02-23T08:27:17;6.00;18.90
51619;DHT22;38518;53.164;5.430;2024-02-23T08:29:43;5.90;13.50
51619;DHT22;38518;53.164;5.430;2024-02-23T08:32:09;5.90;12.90
51619;DHT22;38518;53.164;5.430;2024-02-23T08:34:35;5.80;16.60
51619;DHT22;38518;53.164;5.430;2024-02-23T08:37:01;6.10;16.50
51619;DHT22;38518;53.164;5.430;2024-02-23T08:39:27;5.80;18.20
51619;DHT22;38518;53.164;5.430;2024-02-23T08:41:54;5.80;15.80
51619;DHT22;38518;53.164;5.430;2024-02-23T08:44:20;6.80;12.80
51619;DHT22;38518;53.164;5.430;2024-02-23T08:46:47;6.20;15.20
51619;DHT22;38518;53.164;5.430;2024-02-23T08:49:14;5.80;15.50
51619;DHT22;38518;53.164;5.430;2024-02-23T08:51:40;5.80;17.50
51619;DHT22;38518;53.164;5.430;2024-02-23T08:54:06;5.80;11.80
51619;DHT22;38518;53.164;5.430;2024-02-23T08:56:37;5.90;6.50
51619;DHT22;38518;53.164;5.430;2024-02-23T08:59:04;6.30;7.80
51619;DHT22;38518;53.164;5.430;2024-02-23T09:01:30;5.90;10.40
51619;DHT22;38518;53.164;5.430;2024-02-23T09:03:56;5.80;8.70
51619;DHT22;38518;53.164;5.430;2024-02-23T09:06:21;5.80;7.20
51619;DHT22;38518;53.164;5.430;2024-02-23T09:08:47;5.80;9.80
51619;DHT22;38518;53.164;5.430;2024-02-23T09:11:13;6.30;13.40
51619;DHT22;38518;53.164;5.430;2024-02-23T09:13:40;5.80;14.00
51619;DHT22;38518;53.164;5.430;2024-02-23T09:16:08;5.70;11.70
51619;DHT22;38518;53.164;5.430;2024-02-23T09:18:34;5.70;12.70
51619;DHT22;38518;53.164;5.430;2024-02-23T09:21:00;5.80;12.70
51619;DHT22;38518;53.164;5.430;2024-02-23T09:23:26;5.70;12.20
51619;DHT22;38518;53.164;5.430;2024-02-23T09:25:52;5.70;14.00
51619;DHT22;38518;53.164;5.430;2024-02-23T09:28:18;6.40;12.90
51619;DHT22;38518;53.164;5.430;2024-02-23T09:30:44;5.70;14.70
51619;DHT22;38518;53.164;5.430;2024-02-23T09:33:10;5.70;18.80
51619;DHT22;38518;53.164;5.430;2024-02-23T09:35:35;5.50;25.20
51619;DHT22;38518;53.164;5.430;2024-02-23T09:38:01;5.90;37.50
51619;DHT22;38518;53.164;5.430;2024-02-23T09:40:28;5.20;54.90
51619;DHT22;38518;53.164;5.430;2024-02-23T09:42:58;5.10;61.80
51619;DHT22;38518;53.164;5.430;2024-02-23T09:45:25;5.00;72.10
51619;DHT22;38518;53.164;5.430;2024-02-23T09:47:53;5.00;78.60
51619;DHT22;38518;53.164;5.430;2024-02-23T09:50:22;4.80;91.20
51619;DHT22;38518;53.164;5.430;2024-02-23T09:52:49;4.90;93.90
51619;DHT22;38518;53.164;5.430;2024-02-23T09:55:20;4.70;99.80
51619;DHT22;38518;53.164;5.430;2024-02-23T09:57:48;5.10;99.90
51619;DHT22;38518;53.164;5.430;2024-02-23T10:00:16;4.80;99.90
51619;DHT22;38518;53.164;5.430;2024-02-23T10:02:43;4.90;99.90
51619;DHT22;38518;53.164;5.430;2024-02-23T10:05:10;5.70;99.90
51619;DHT22;38518;53.164;5.430;2024-02-23T10:07:38;6.20;99.90
51619;DHT22;38518;53.164;5.430;2024-02-23T10:10:07;5.30;99.90
51619;DHT22;38518;53.164;5.430;2024-02-23T10:12:34;5.40;99.90
51619;DHT22;38518;53.164;5.430;2024-02-23T10:15:01;5.50;99.90
51619;DHT22;38518;53.164;5.430;2024-02-23T10:17:30;5.50;99.90
51619;DHT22;38518;53.164;5.430;2024-02-23T10:19:56;5.40;99.90
51619;DHT22;38518;53.164;5.430;2024-02-23T10:22:23;6.20;99.90
51619;DHT22;38518;53.164;5.430;2024-02-23T10:24:51;5.60;99.90
51619;DHT22;38518;53.164;5.430;2024-02-23T10:27:17;5.90;99.90
51619;DHT22;38518;53.164;5.430;2024-02-23T10:29:43;5.80;99.90
51619;DHT22;38518;53.164;5.430;2024-02-23T10:32:13;6.60;99.90
51619;DHT22;38518;53.164;5.430;2024-02-23T10:34:42;4.70;99.90
51619;DHT22;38518;53.164;5.430;2024-02-23T10:37:08;5.60;99.90
51619;DHT22;38518;53.164;5.430;2024-02-23T10:39:36;6.60;99.60
51619;DHT22;38518;53.164;5.430;2024-02-23T10:42:03;5.70;98.80
51619;DHT22;38518;53.164;5.430;2024-02-23T10:44:30;5.90;99.90
51619;DHT22;38518;53.164;5.430;2024-02-23T10:46:58;6.30;99.90
51619;DHT22;38518;53.164;5.430;2024-02-23T10:49:28;6.30;97.40
51619;DHT22;38518;53.164;5.430;2024-02-23T10:51:54;6.30;91.50
51619;DHT22;38518;53.164;5.430;2024-02-23T10:54:20;6.40;80.60
51619;DHT22;38518;53.164;5.430;2024-02-23T10:56:48;6.30;82.10
51619;DHT22;38518;53.164;5.430;2024-02-23T10:59:14;6.60;75.20
51619;DHT22;38518;53.164;5.430;2024-02-23T11:01:48;6.10;77.60
51619;DHT22;38518;53.164;5.430;2024-02-23T11:04:18;6.10;76.90
51619;DHT22;38518;53.164;5.430;2024-02-23T11:06:50;6.10;82.00
51619;DHT22;38518;53.164;5.430;2024-02-23T11:09:16;6.10;90.80
51619;DHT22;38518;53.164;5.430;2024-02-23T11:11:54;5.80;95.00
51619;DHT22;38518;53.164;5.430;2024-02-23T11:14:30;5.70;99.90
51619;DHT22;38518;53.164;5.430;2024-02-23T11:16:58;5.70;99.90
51619;DHT22;38518;53.164;5.430;2024-02-23T11:19:35;6.30;99.90
51619;DHT22;38518;53.164;5.430;2024-02-23T11:22:02;5.60;99.90
51619;DHT22;38518;53.164;5.430;2024-02-23T11:24:32;5.60;99.90
51619;DHT22;38518;53.164;5.430;2024-02-23T11:27:01;5.60;99.90
51619;DHT22;38518;53.164;5.430;2024-02-23T11:29:34;6.10;99.90
51619;DHT22;38518;53.164;5.430;2024-02-23T11:32:02;4.70;99.90
51619;DHT22;38518;53.164;5.430;2024-02-23T11:34:30;5.70;99.90
51619;DHT22;38518;53.164;5.430;2024-02-23T11:36:56;5.80;99.90
51619;DHT22;38518;53.164;5.430;2024-02-23T11:39:23;5.70;99.90
51619;DHT22;38518;53.164;5.430;2024-02-23T11:41:50;5.60;99.90
51619;DHT22;38518;53.164;5.430;2024-02-23T11:44:16;6.80;99.90
51619;DHT22;38518;53.164;5.430;2024-02-23T11:46:46;5.90;99.90
51619;DHT22;38518;53.164;5.430;2024-02-23T11:49:16;5.70;99.90
51619;DHT22;38518;53.164;5.430;2024-02-23T11:51:42;5.60;99.90
51619;DHT22;38518;53.164;5.430;2024-02-23T11:54:08;5.80;99.90
51619;DHT22;38518;53.164;5.430;2024-02-23T11:56:34;6.00;99.90
51619;DHT22;38518;53.164;5.430;2024-02-23T11:59:01;6.30;99.90
51619;DHT22;38518;53.164;5.430;2024-02-23T12:01:29;6.80;99.90
51619;DHT22;38518;53.164;5.430;2024-02-23T12:03:55;7.50;99.90
51619;DHT22;38518;53.164;5.430;2024-02-23T12:06:21;8.30;99.90
51619;DHT22;38518;53.164;5.430;2024-02-23T12:08:47;8.80;99.90
51619;DHT22;38518;53.164;5.430;2024-02-23T12:11:15;9.20;99.90
51619;DHT22;38518;53.164;5.430;2024-02-23T12:13:41;9.40;99.90
51619;DHT22;38518;53.164;5.430;2024-02-23T12:16:07;9.80;99.90
51619;DHT22;38518;53.164;5.430;2024-02-23T12:18:36;9.60;99.90
51619;DHT22;38518;53.164;5.430;2024-02-23T12:21:05;9.60;99.90
51619;DHT22;38518;53.164;5.430;2024-02-23T12:23:41;9.90;99.90
51619;DHT22;38518;53.164;5.430;2024-02-23T12:26:08;10.50;99.90
51619;DHT22;38518;53.164;5.430;2024-02-23T12:28:34;10.50;72.50
51619;DHT22;38518;53.164;5.430;2024-02-23T12:31:01;10.20;68.60
51619;DHT22;38518;53.164;5.430;2024-02-23T12:33:28;9.90;69.30
51619;DHT22;38518;53.164;5.430;2024-02-23T12:35:55;9.40;36.20
51619;DHT22;38518;53.164;5.430;2024-02-23T12:38:24;9.00;36.70
51619;DHT22;38518;53.164;5.430;2024-02-23T12:40:50;8.60;44.90
51619;DHT22;38518;53.164;5.430;2024-02-23T12:43:17;8.60;62.30
51619;DHT22;38518;53.164;5.430;2024-02-23T12:45:42;8.50;62.50
51619;DHT22;38518;53.164;5.430;2024-02-23T12:48:10;8.40;66.40
51619;DHT22;38518;53.164;5.430;2024-02-23T12:50:36;8.30;64.80
51619;DHT22;38518;53.164;5.430;2024-02-23T12:53:02;8.30;75.40
51619;DHT22;38518;53.164;5.430;2024-02-23T12:55:29;8.30;62.80
51619;DHT22;38518;53.164;5.430;2024-02-23T12:57:54;8.60;80.30
51619;DHT22;38518;53.164;5.430;2024-02-23T13:00:20;9.20;66.10
51619;DHT22;38518;53.164;5.430;2024-02-23T13:02:47;9.30;44.30
51619;DHT22;38518;53.164;5.430;2024-02-23T13:05:12;9.20;24.10
51619;DHT22;38518;53.164;5.430;2024-02-23T13:07:38;9.20;23.30
51619;DHT22;38518;53.164;5.430;2024-02-23T13:10:06;8.90;1.00
51619;DHT22;38518;53.164;5.430;2024-02-23T13:12:32;8.90;1.00
51619;DHT22;38518;53.164;5.430;2024-02-23T13:14:59;9.00;1.00
51619;DHT22;38518;53.164;5.430;2024-02-23T13:17:24;8.90;3.50
51619;DHT22;38518;53.164;5.430;2024-02-23T13:19:51;8.80;2.90
51619;DHT22;38518;53.164;5.430;2024-02-23T13:22:16;8.70;3.50
51619;DHT22;38518;53.164;5.430;2024-02-23T13:24:42;8.80;14.50
51619;DHT22;38518;53.164;5.430;2024-02-23T13:27:08;8.70;17.40
51619;DHT22;38518;53.164;5.430;2024-02-23T13:29:33;8.80;21.00
51619;DHT22;38518;53.164;5.430;2024-02-23T13:31:59;8.90;8.40
51619;DHT22;38518;53.164;5.430;2024-02-23T13:34:25;9.10;7.30
51619;DHT22;38518;53.164;5.430;2024-02-23T13:36:51;9.10;5.80
51619;DHT22;38518;53.164;5.430;2024-02-23T13:39:18;9.10;2.60
51619;DHT22;38518;53.164;5.430;2024-02-23T13:41:45;9.00;1.00
51619;DHT22;38518;53.164;5.430;2024-02-23T13:44:11;8.90;1.00
51619;DHT22;38518;53.164;5.430;2024-02-23T13:46:38;10.50;1.00
51619;DHT22;38518;53.164;5.430;2024-02-23T13:49:06;8.90;1.00
51619;DHT22;38518;53.164;5.430;2024-02-23T13:51:33;8.80;1.00
51619;DHT22;38518;53.164;5.430;2024-02-23T13:53:59;8.90;1.00
51619;DHT22;38518;53.164;5.430;2024-02-23T13:56:25;8.90;1.00
51619;DHT22;38518;53.164;5.430;2024-02-23T13:58:51;8.70;1.00
51619;DHT22;38518;53.164;5.430;2024-02-23T14:01:17;8.50;1.00
51619;DHT22;38518;53.164;5.430;2024-02-23T14:03:42;8.50;1.00
51619;DHT22;38518;53.164;5.430;2024-02-23T14:06:08;9.10;2.10
51619;DHT22;38518;53.164;5.430;2024-02-23T14:08:35;9.30;1.00
51619;DHT22;38518;53.164;5.430;2024-02-23T14:11:03;8.90;1.00
51619;DHT22;38518;53.164;5.430;2024-02-23T14:13:32;9.40;1.00
51619;DHT22;38518;53.164;5.430;2024-02-23T14:15:58;10.30;1.00
51619;DHT22;38518;53.164;5.430;2024-02-23T14:18:24;10.60;1.00
51619;DHT22;38518;53.164;5.430;2024-02-23T14:20:50;10.30;1.00
51619;DHT22;38518;53.164;5.430;2024-02-23T14:23:18;10.00;1.00
51619;DHT22;38518;53.164;5.430;2024-02-23T14:25:43;10.40;1.00
51619;DHT22;38518;53.164;5.430;2024-02-23T14:28:09;11.00;1.00
51619;DHT22;38518;53.164;5.430;2024-02-23T14:30:35;11.50;1.00
51619;DHT22;38518;53.164;5.430;2024-02-23T14:33:01;11.40;1.00
51619;DHT22;38518;53.164;5.430;2024-02-23T14:35:27;10.60;1.00
51619;DHT22;38518;53.164;5.430;2024-02-23T14:37:53;10.50;1.00
51619;DHT22;38518;53.164;5.430;2024-02-23T14:40:19;11.40;1.00
51619;DHT22;38518;53.164;5.430;2024-02-23T14:42:44;12.00;1.00
51619;DHT22;38518;53.164;5.430;2024-02-23T14:45:10;12.50;1.00
51619;DHT22;38518;53.164;5.430;2024-02-23T14:47:39;12.60;1.00
51619;DHT22;38518;53.164;5.430;2024-02-23T14:50:05;12.30;1.00
51619;DHT22;38518;53.164;5.430;2024-02-23T14:52:33;12.80;1.00
51619;DHT22;38518;53.164;5.430;2024-02-23T14:55:00;12.70;1.00
51619;DHT22;38518;53.164;5.430;2024-02-23T14:57:26;12.90;1.00
51619;DHT22;38518;53.164;5.430;2024-02-23T14:59:52;12.50;1.00
51619;DHT22;38518;53.164;5.430;2024-02-23T15:02:20;11.70;1.00
51619;DHT22;38518;53.164;5.430;2024-02-23T15:04:46;10.70;1.00
51619;DHT22;38518;53.164;5.430;2024-02-23T15:07:12;10.40;1.00
51619;DHT22;38518;53.164;5.430;2024-02-23T15:09:38;10.20;1.00
51619;DHT22;38518;53.164;5.430;2024-02-23T15:12:04;9.80;1.00
51619;DHT22;38518;53.164;5.430;2024-02-23T15:14:30;9.60;1.00
51619;DHT22;38518;53.164;5.430;2024-02-23T15:16:56;9.40;1.00
51619;DHT22;38518;53.164;5.430;2024-02-23T15:19:22;9.80;1.00
51619;DHT22;38518;53.164;5.430;2024-02-23T15:21:49;9.70;1.00
51619;DHT22;38518;53.164;5.430;2024-02-23T15:24:18;10.00;1.00
51619;DHT22;38518;53.164;5.430;2024-02-23T15:26:45;10.60;1.00
51619;DHT22;38518;53.164;5.430;2024-02-23T15:29:11;10.90;1.00
51619;DHT22;38518;53.164;5.430;2024-02-23T15:31:38;11.20;1.00
51619;DHT22;38518;53.164;5.430;2024-02-23T15:34:05;11.80;1.00
51619;DHT22;38518;53.164;5.430;2024-02-23T15:36:31;12.00;1.00
51619;DHT22;38518;53.164;5.430;2024-02-23T15:38:57;12.00;1.00
51619;DHT22;38518;53.164;5.430;2024-02-23T15:41:34;11.90;1.00